sensor_id;sensor_type;location;lat;lon;timestamp;P1;durP1;ratioP1;P2;durP2;ratioP2
23258;SDS011;11798;51.528;7.240;2022-10-22T00:00:14;7.50;;;3.70;;
23258;SDS011;11798;51.528;7.240;2022-10-22T00:02:41;7.93;;;3.20;;
23258;SDS011;11798;51.528;7.240;2022-10-22T00:05:07;6.50;;;3.20;;
23258;SDS011;11798;51.528;7.240;2022-10-22T00:07:33;3.83;;;2.70;;
23258;SDS011;11798;51.528;7.240;2022-10-22T00:09:59;5.97;;;3.40;;
23258;SDS011;11798;51.528;7.240;2022-10-22T00:12:25;4.60;;;3.30;;
23258;SDS011;11798;51.528;7.240;2022-10-22T00:14:51;5.90;;;3.13;;
23258;SDS011;11798;51.528;7.240;2022-10-22T00:17:17;8.90;;;4.27;;
23258;SDS011;11798;51.528;7.240;2022-10-22T00:19:43;11.07;;;3.70;;
23258;SDS011;11798;51.528;7.240;2022-10-22T00:22:10;8.77;;;4.00;;
23258;SDS011;11798;51.528;7.240;2022-10-22T00:24:36;10.83;;;3.40;;
23258;SDS011;11798;51.528;7.240;2022-10-22T00:27:03;6.90;;;3.50;;
23258;SDS011;11798;51.528;7.240;2022-10-22T00:29:30;10.13;;;3.40;;
23258;SDS011;11798;51.528;7.240;2022-10-22T00:31:56;4.37;;;3.27;;
23258;SDS011;11798;51.528;7.240;2022-10-22T00:34:22;8.60;;;3.70;;
23258;SDS011;11798;51.528;7.240;2022-10-22T00:36:48;5.00;;;2.87;;
23258;SDS011;11798;51.528;7.240;2022-10-22T00:39:15;7.77;;;3.10;;
23258;SDS011;11798;51.528;7.240;2022-10-22T00:41:43;7.77;;;3.47;;
23258;SDS011;11798;51.528;7.240;2022-10-22T00:47:13;5.37;;;3.60;;
23258;SDS011;11798;51.528;7.240;2022-10-22T00:49:40;5.87;;;3.70;;
23258;SDS011;11798;51.528;7.240;2022-10-22T00:52:06;7.33;;;3.17;;
23258;SDS011;11798;51.528;7.240;2022-10-22T00:54:32;6.10;;;3.47;;
23258;SDS011;11798;51.528;7.240;2022-10-22T00:56:59;8.13;;;3.83;;
23258;SDS011;11798;51.528;7.240;2022-10-22T00:59:25;7.10;;;3.73;;
23258;SDS011;11798;51.528;7.240;2022-10-22T01:01:51;6.57;;;4.20;;
23258;SDS011;11798;51.528;7.240;2022-10-22T01:04:17;7.17;;;3.90;;
23258;SDS011;11798;51.528;7.240;2022-10-22T01:06:44;7.60;;;3.90;;
23258;SDS011;11798;51.528;7.240;2022-10-22T01:09:15;5.37;;;3.57;;
23258;SDS011;11798;51.528;7.240;2022-10-22T01:12:09;7.73;;;4.10;;
23258;SDS011;11798;51.528;7.240;2022-10-22T01:15:06;8.33;;;3.70;;
23258;SDS011;11798;51.528;7.240;2022-10-22T01:25:52;8.90;;;4.37;;
23258;SDS011;11798;51.528;7.240;2022-10-22T01:31:07;7.90;;;4.27;;
23258;SDS011;11798;51.528;7.240;2022-10-22T01:33:34;8.13;;;4.03;;
23258;SDS011;11798;51.528;7.240;2022-10-22T01:36:01;7.63;;;4.20;;
23258;SDS011;11798;51.528;7.240;2022-10-22T01:38:28;8.00;;;4.13;;
23258;SDS011;11798;51.528;7.240;2022-10-22T01:40:54;9.27;;;4.07;;
23258;SDS011;11798;51.528;7.240;2022-10-22T01:43:21;10.00;;;4.30;;
23258;SDS011;11798;51.528;7.240;2022-10-22T01:45:47;8.90;;;4.33;;
23258;SDS011;11798;51.528;7.240;2022-10-22T01:59:19;6.97;;;4.10;;
23258;SDS011;11798;51.528;7.240;2022-10-22T02:07:23;8.97;;;4.50;;
23258;SDS011;11798;51.528;7.240;2022-10-22T02:09:52;10.33;;;4.70;;
23258;SDS011;11798;51.528;7.240;2022-10-22T02:12:20;10.13;;;4.37;;
23258;SDS011;11798;51.528;7.240;2022-10-22T02:14:47;8.40;;;4.57;;
23258;SDS011;11798;51.528;7.240;2022-10-22T02:17:15;9.37;;;4.97;;
23258;SDS011;11798;51.528;7.240;2022-10-22T02:19:52;8.77;;;5.30;;
23258;SDS011;11798;51.528;7.240;2022-10-22T02:22:29;7.13;;;4.20;;
23258;SDS011;11798;51.528;7.240;2022-10-22T02:24:55;8.90;;;4.53;;
23258;SDS011;11798;51.528;7.240;2022-10-22T02:32:19;8.33;;;5.00;;
23258;SDS011;11798;51.528;7.240;2022-10-22T02:34:50;6.43;;;4.60;;
23258;SDS011;11798;51.528;7.240;2022-10-22T02:37:16;8.63;;;4.27;;
23258;SDS011;11798;51.528;7.240;2022-10-22T02:39:42;10.53;;;4.67;;
23258;SDS011;11798;51.528;7.240;2022-10-22T02:42:09;7.13;;;4.67;;
23258;SDS011;11798;51.528;7.240;2022-10-22T02:44:36;8.20;;;4.43;;
23258;SDS011;11798;51.528;7.240;2022-10-22T02:47:02;14.17;;;5.47;;
23258;SDS011;11798;51.528;7.240;2022-10-22T02:49:28;9.17;;;5.37;;
23258;SDS011;11798;51.528;7.240;2022-10-22T02:51:54;9.43;;;4.87;;
23258;SDS011;11798;51.528;7.240;2022-10-22T02:54:19;10.63;;;5.07;;
23258;SDS011;11798;51.528;7.240;2022-10-22T02:56:45;8.73;;;4.93;;
23258;SDS011;11798;51.528;7.240;2022-10-22T02:59:11;8.47;;;4.67;;
23258;SDS011;11798;51.528;7.240;2022-10-22T03:01:36;8.50;;;4.97;;
23258;SDS011;11798;51.528;7.240;2022-10-22T03:04:02;11.10;;;5.60;;
23258;SDS011;11798;51.528;7.240;2022-10-22T03:06:28;10.77;;;4.60;;
23258;SDS011;11798;51.528;7.240;2022-10-22T03:08:53;7.57;;;5.00;;
23258;SDS011;11798;51.528;7.240;2022-10-22T03:11:19;12.37;;;5.27;;
23258;SDS011;11798;51.528;7.240;2022-10-22T03:13:45;9.63;;;5.20;;
23258;SDS011;11798;51.528;7.240;2022-10-22T03:16:10;9.77;;;4.80;;
23258;SDS011;11798;51.528;7.240;2022-10-22T03:18:36;10.87;;;5.70;;
23258;SDS011;11798;51.528;7.240;2022-10-22T03:21:07;10.27;;;5.83;;
23258;SDS011;11798;51.528;7.240;2022-10-22T03:23:37;6.80;;;5.43;;
23258;SDS011;11798;51.528;7.240;2022-10-22T03:26:06;7.70;;;5.43;;
23258;SDS011;11798;51.528;7.240;2022-10-22T03:28:33;14.90;;;5.87;;
23258;SDS011;11798;51.528;7.240;2022-10-22T03:31:00;9.20;;;5.60;;
23258;SDS011;11798;51.528;7.240;2022-10-22T03:33:25;8.23;;;5.43;;
23258;SDS011;11798;51.528;7.240;2022-10-22T03:35:51;8.97;;;5.20;;
23258;SDS011;11798;51.528;7.240;2022-10-22T03:38:17;11.00;;;5.57;;
23258;SDS011;11798;51.528;7.240;2022-10-22T03:40:42;11.13;;;5.60;;
23258;SDS011;11798;51.528;7.240;2022-10-22T03:43:09;10.03;;;5.00;;
23258;SDS011;11798;51.528;7.240;2022-10-22T03:45:35;7.60;;;4.97;;
23258;SDS011;11798;51.528;7.240;2022-10-22T03:48:01;8.13;;;5.20;;
23258;SDS011;11798;51.528;7.240;2022-10-22T03:50:26;9.70;;;5.60;;
23258;SDS011;11798;51.528;7.240;2022-10-22T03:52:52;9.27;;;5.67;;
23258;SDS011;11798;51.528;7.240;2022-10-22T03:55:18;8.67;;;6.20;;
23258;SDS011;11798;51.528;7.240;2022-10-22T03:57:44;8.67;;;5.60;;
23258;SDS011;11798;51.528;7.240;2022-10-22T04:00:09;10.80;;;6.10;;
23258;SDS011;11798;51.528;7.240;2022-10-22T04:02:35;12.47;;;5.57;;
23258;SDS011;11798;51.528;7.240;2022-10-22T04:05:01;10.67;;;6.00;;
23258;SDS011;11798;51.528;7.240;2022-10-22T04:07:26;14.97;;;5.93;;
23258;SDS011;11798;51.528;7.240;2022-10-22T04:09:52;12.50;;;5.90;;
23258;SDS011;11798;51.528;7.240;2022-10-22T04:12:17;10.87;;;6.90;;
23258;SDS011;11798;51.528;7.240;2022-10-22T04:14:43;13.03;;;6.93;;
23258;SDS011;11798;51.528;7.240;2022-10-22T04:17:09;13.33;;;7.30;;
23258;SDS011;11798;51.528;7.240;2022-10-22T04:19:34;10.50;;;6.47;;
23258;SDS011;11798;51.528;7.240;2022-10-22T04:22:00;11.70;;;7.50;;
23258;SDS011;11798;51.528;7.240;2022-10-22T04:24:26;14.87;;;6.70;;
23258;SDS011;11798;51.528;7.240;2022-10-22T04:26:54;13.53;;;7.40;;
23258;SDS011;11798;51.528;7.240;2022-10-22T04:29:20;9.07;;;7.00;;
23258;SDS011;11798;51.528;7.240;2022-10-22T04:31:46;12.73;;;7.37;;
23258;SDS011;11798;51.528;7.240;2022-10-22T04:34:11;12.07;;;7.63;;
23258;SDS011;11798;51.528;7.240;2022-10-22T04:36:37;11.97;;;7.13;;
23258;SDS011;11798;51.528;7.240;2022-10-22T04:39:03;11.97;;;7.47;;
23258;SDS011;11798;51.528;7.240;2022-10-22T04:41:30;12.33;;;8.13;;
23258;SDS011;11798;51.528;7.240;2022-10-22T04:43:58;13.83;;;7.97;;
23258;SDS011;11798;51.528;7.240;2022-10-22T04:46:25;14.33;;;7.47;;
23258;SDS011;11798;51.528;7.240;2022-10-22T04:48:53;13.90;;;7.20;;
23258;SDS011;11798;51.528;7.240;2022-10-22T04:51:20;13.57;;;7.67;;
23258;SDS011;11798;51.528;7.240;2022-10-22T04:53:47;12.93;;;7.60;;
23258;SDS011;11798;51.528;7.240;2022-10-22T04:56:18;14.77;;;7.60;;
23258;SDS011;11798;51.528;7.240;2022-10-22T04:58:53;14.30;;;7.00;;
23258;SDS011;11798;51.528;7.240;2022-10-22T05:01:20;12.80;;;6.70;;
23258;SDS011;11798;51.528;7.240;2022-10-22T05:03:48;11.57;;;7.13;;
23258;SDS011;11798;51.528;7.240;2022-10-22T05:06:15;12.33;;;7.93;;
23258;SDS011;11798;51.528;7.240;2022-10-22T05:08:41;11.13;;;7.47;;
23258;SDS011;11798;51.528;7.240;2022-10-22T05:11:14;10.30;;;6.73;;
23258;SDS011;11798;51.528;7.240;2022-10-22T05:13:42;10.00;;;6.80;;
23258;SDS011;11798;51.528;7.240;2022-10-22T05:16:08;10.57;;;6.83;;
23258;SDS011;11798;51.528;7.240;2022-10-22T05:18:38;10.17;;;7.37;;
23258;SDS011;11798;51.528;7.240;2022-10-22T05:21:12;13.37;;;7.23;;
23258;SDS011;11798;51.528;7.240;2022-10-22T05:23:39;12.03;;;8.03;;
23258;SDS011;11798;51.528;7.240;2022-10-22T05:26:06;11.37;;;6.70;;
23258;SDS011;11798;51.528;7.240;2022-10-22T05:28:33;11.23;;;7.03;;
23258;SDS011;11798;51.528;7.240;2022-10-22T05:31:00;11.33;;;7.00;;
23258;SDS011;11798;51.528;7.240;2022-10-22T05:33:26;9.57;;;6.93;;
23258;SDS011;11798;51.528;7.240;2022-10-22T05:35:54;9.67;;;6.90;;
23258;SDS011;11798;51.528;7.240;2022-10-22T05:38:20;8.93;;;6.57;;
23258;SDS011;11798;51.528;7.240;2022-10-22T05:40:47;13.00;;;7.63;;
23258;SDS011;11798;51.528;7.240;2022-10-22T05:43:13;9.97;;;6.70;;
23258;SDS011;11798;51.528;7.240;2022-10-22T05:45:39;11.10;;;6.77;;
23258;SDS011;11798;51.528;7.240;2022-10-22T05:48:06;9.63;;;7.20;;
23258;SDS011;11798;51.528;7.240;2022-10-22T05:50:36;11.50;;;7.30;;
23258;SDS011;11798;51.528;7.240;2022-10-22T05:53:03;13.93;;;7.27;;
23258;SDS011;11798;51.528;7.240;2022-10-22T05:55:29;10.00;;;6.83;;
23258;SDS011;11798;51.528;7.240;2022-10-22T05:58:00;13.10;;;7.17;;
23258;SDS011;11798;51.528;7.240;2022-10-22T06:00:27;10.27;;;6.47;;
23258;SDS011;11798;51.528;7.240;2022-10-22T06:02:52;10.00;;;7.17;;
23258;SDS011;11798;51.528;7.240;2022-10-22T06:05:18;12.77;;;7.03;;
23258;SDS011;11798;51.528;7.240;2022-10-22T06:07:44;10.07;;;6.60;;
23258;SDS011;11798;51.528;7.240;2022-10-22T06:10:12;10.47;;;7.10;;
23258;SDS011;11798;51.528;7.240;2022-10-22T06:12:39;11.53;;;7.50;;
23258;SDS011;11798;51.528;7.240;2022-10-22T06:15:05;9.37;;;6.73;;
23258;SDS011;11798;51.528;7.240;2022-10-22T06:17:31;9.27;;;6.87;;
23258;SDS011;11798;51.528;7.240;2022-10-22T06:19:57;12.63;;;7.50;;
23258;SDS011;11798;51.528;7.240;2022-10-22T06:22:22;11.87;;;7.53;;
23258;SDS011;11798;51.528;7.240;2022-10-22T06:24:48;14.23;;;7.50;;
23258;SDS011;11798;51.528;7.240;2022-10-22T06:27:13;13.93;;;7.97;;
23258;SDS011;11798;51.528;7.240;2022-10-22T06:29:39;10.97;;;7.23;;
23258;SDS011;11798;51.528;7.240;2022-10-22T06:32:04;11.17;;;7.33;;
23258;SDS011;11798;51.528;7.240;2022-10-22T06:34:30;11.70;;;7.57;;
23258;SDS011;11798;51.528;7.240;2022-10-22T06:36:56;14.03;;;8.30;;
23258;SDS011;11798;51.528;7.240;2022-10-22T06:39:21;13.53;;;8.67;;
23258;SDS011;11798;51.528;7.240;2022-10-22T06:41:47;13.70;;;8.83;;
23258;SDS011;11798;51.528;7.240;2022-10-22T06:44:13;13.87;;;8.33;;
23258;SDS011;11798;51.528;7.240;2022-10-22T06:46:40;10.37;;;7.83;;
23258;SDS011;11798;51.528;7.240;2022-10-22T06:49:06;14.13;;;7.30;;
23258;SDS011;11798;51.528;7.240;2022-10-22T06:51:37;12.43;;;7.70;;
23258;SDS011;11798;51.528;7.240;2022-10-22T06:54:02;11.60;;;7.57;;
23258;SDS011;11798;51.528;7.240;2022-10-22T06:56:28;8.57;;;7.27;;
23258;SDS011;11798;51.528;7.240;2022-10-22T06:58:54;11.77;;;6.93;;
23258;SDS011;11798;51.528;7.240;2022-10-22T07:01:23;8.40;;;6.50;;
23258;SDS011;11798;51.528;7.240;2022-10-22T07:03:51;11.43;;;7.50;;
23258;SDS011;11798;51.528;7.240;2022-10-22T07:06:17;13.83;;;6.33;;
23258;SDS011;11798;51.528;7.240;2022-10-22T07:08:44;11.30;;;6.50;;
23258;SDS011;11798;51.528;7.240;2022-10-22T07:11:10;9.73;;;5.70;;
23258;SDS011;11798;51.528;7.240;2022-10-22T07:13:38;10.23;;;6.00;;
23258;SDS011;11798;51.528;7.240;2022-10-22T07:16:04;8.83;;;5.40;;
23258;SDS011;11798;51.528;7.240;2022-10-22T07:18:30;9.70;;;5.47;;
23258;SDS011;11798;51.528;7.240;2022-10-22T07:20:56;7.90;;;4.70;;
23258;SDS011;11798;51.528;7.240;2022-10-22T07:23:23;10.07;;;4.90;;
23258;SDS011;11798;51.528;7.240;2022-10-22T07:25:49;9.87;;;4.87;;
23258;SDS011;11798;51.528;7.240;2022-10-22T07:28:15;10.33;;;4.47;;
23258;SDS011;11798;51.528;7.240;2022-10-22T07:30:40;9.93;;;4.47;;
23258;SDS011;11798;51.528;7.240;2022-10-22T07:33:06;7.63;;;4.37;;
23258;SDS011;11798;51.528;7.240;2022-10-22T07:35:32;7.60;;;4.30;;
23258;SDS011;11798;51.528;7.240;2022-10-22T07:37:58;9.00;;;5.00;;
23258;SDS011;11798;51.528;7.240;2022-10-22T07:40:24;8.90;;;4.30;;
23258;SDS011;11798;51.528;7.240;2022-10-22T07:42:50;12.37;;;4.30;;
23258;SDS011;11798;51.528;7.240;2022-10-22T07:45:15;8.23;;;4.10;;
23258;SDS011;11798;51.528;7.240;2022-10-22T07:47:41;12.50;;;5.03;;
23258;SDS011;11798;51.528;7.240;2022-10-22T07:50:07;9.47;;;4.37;;
23258;SDS011;11798;51.528;7.240;2022-10-22T07:52:33;9.37;;;4.13;;
23258;SDS011;11798;51.528;7.240;2022-10-22T07:54:59;8.40;;;3.90;;
23258;SDS011;11798;51.528;7.240;2022-10-22T07:57:24;9.63;;;4.30;;
23258;SDS011;11798;51.528;7.240;2022-10-22T07:59:50;7.10;;;3.77;;
23258;SDS011;11798;51.528;7.240;2022-10-22T08:02:15;8.67;;;3.90;;
23258;SDS011;11798;51.528;7.240;2022-10-22T08:04:41;4.97;;;3.27;;
23258;SDS011;11798;51.528;7.240;2022-10-22T08:07:07;9.53;;;3.57;;
23258;SDS011;11798;51.528;7.240;2022-10-22T08:09:32;6.87;;;3.90;;
23258;SDS011;11798;51.528;7.240;2022-10-22T08:11:58;7.83;;;3.50;;
23258;SDS011;11798;51.528;7.240;2022-10-22T08:14:24;7.23;;;3.63;;
23258;SDS011;11798;51.528;7.240;2022-10-22T08:16:49;7.27;;;3.53;;
23258;SDS011;11798;51.528;7.240;2022-10-22T08:19:15;5.47;;;3.00;;
23258;SDS011;11798;51.528;7.240;2022-10-22T08:21:45;9.33;;;3.30;;
23258;SDS011;11798;51.528;7.240;2022-10-22T08:24:11;6.50;;;3.47;;
23258;SDS011;11798;51.528;7.240;2022-10-22T08:26:37;6.40;;;3.17;;
23258;SDS011;11798;51.528;7.240;2022-10-22T08:29:03;8.53;;;3.10;;
23258;SDS011;11798;51.528;7.240;2022-10-22T08:31:29;8.73;;;2.80;;
23258;SDS011;11798;51.528;7.240;2022-10-22T08:33:54;5.60;;;3.13;;
23258;SDS011;11798;51.528;7.240;2022-10-22T08:36:20;11.67;;;3.47;;
23258;SDS011;11798;51.528;7.240;2022-10-22T08:38:45;9.33;;;3.03;;
23258;SDS011;11798;51.528;7.240;2022-10-22T08:41:18;12.23;;;3.97;;
23258;SDS011;11798;51.528;7.240;2022-10-22T08:46:32;11.83;;;3.03;;
23258;SDS011;11798;51.528;7.240;2022-10-22T08:49:22;9.67;;;3.67;;
23258;SDS011;11798;51.528;7.240;2022-10-22T08:51:51;6.67;;;3.10;;
23258;SDS011;11798;51.528;7.240;2022-10-22T08:57:38;7.80;;;2.97;;
23258;SDS011;11798;51.528;7.240;2022-10-22T09:00:36;10.80;;;3.23;;
23258;SDS011;11798;51.528;7.240;2022-10-22T09:06:04;7.40;;;2.63;;
23258;SDS011;11798;51.528;7.240;2022-10-22T09:08:44;9.73;;;2.90;;
23258;SDS011;11798;51.528;7.240;2022-10-22T09:13:37;13.40;;;3.00;;
23258;SDS011;11798;51.528;7.240;2022-10-22T09:18:57;10.40;;;2.87;;
23258;SDS011;11798;51.528;7.240;2022-10-22T09:24:20;9.57;;;2.27;;
23258;SDS011;11798;51.528;7.240;2022-10-22T09:26:54;9.13;;;2.90;;
23258;SDS011;11798;51.528;7.240;2022-10-22T09:29:21;11.40;;;2.70;;
23258;SDS011;11798;51.528;7.240;2022-10-22T09:31:53;7.07;;;2.93;;
23258;SDS011;11798;51.528;7.240;2022-10-22T09:34:19;7.83;;;2.77;;
23258;SDS011;11798;51.528;7.240;2022-10-22T09:36:45;7.13;;;2.80;;
23258;SDS011;11798;51.528;7.240;2022-10-22T09:39:20;6.77;;;2.90;;
23258;SDS011;11798;51.528;7.240;2022-10-22T09:41:48;5.77;;;2.70;;
23258;SDS011;11798;51.528;7.240;2022-10-22T09:44:14;8.97;;;2.50;;
23258;SDS011;11798;51.528;7.240;2022-10-22T09:46:42;6.83;;;2.30;;
23258;SDS011;11798;51.528;7.240;2022-10-22T09:49:10;6.27;;;2.33;;
23258;SDS011;11798;51.528;7.240;2022-10-22T09:54:17;7.13;;;2.67;;
23258;SDS011;11798;51.528;7.240;2022-10-22T09:59:25;7.30;;;3.13;;
23258;SDS011;11798;51.528;7.240;2022-10-22T10:02:05;10.07;;;2.00;;
23258;SDS011;11798;51.528;7.240;2022-10-22T10:04:41;9.30;;;2.53;;
23258;SDS011;11798;51.528;7.240;2022-10-22T10:07:44;13.13;;;2.83;;
23258;SDS011;11798;51.528;7.240;2022-10-22T10:10:05;10.03;;;2.57;;
23258;SDS011;11798;51.528;7.240;2022-10-22T10:15:29;7.20;;;2.57;;
23258;SDS011;11798;51.528;7.240;2022-10-22T10:18:29;6.67;;;2.33;;
23258;SDS011;11798;51.528;7.240;2022-10-22T10:23:55;9.33;;;2.53;;
23258;SDS011;11798;51.528;7.240;2022-10-22T10:26:38;7.33;;;2.30;;
23258;SDS011;11798;51.528;7.240;2022-10-22T10:29:20;5.93;;;2.33;;
23258;SDS011;11798;51.528;7.240;2022-10-22T10:34:28;11.73;;;2.90;;
23258;SDS011;11798;51.528;7.240;2022-10-22T10:48:21;7.33;;;2.20;;
23258;SDS011;11798;51.528;7.240;2022-10-22T10:51:04;5.80;;;1.87;;
23258;SDS011;11798;51.528;7.240;2022-10-22T10:56:29;6.70;;;2.17;;
23258;SDS011;11798;51.528;7.240;2022-10-22T11:07:16;5.20;;;2.10;;
23258;SDS011;11798;51.528;7.240;2022-10-22T11:09:47;7.20;;;2.33;;
23258;SDS011;11798;51.528;7.240;2022-10-22T11:12:19;9.60;;;2.30;;
23258;SDS011;11798;51.528;7.240;2022-10-22T11:14:58;7.83;;;2.17;;
23258;SDS011;11798;51.528;7.240;2022-10-22T11:17:33;5.10;;;1.90;;
23258;SDS011;11798;51.528;7.240;2022-10-22T11:20:14;4.87;;;2.30;;
23258;SDS011;11798;51.528;7.240;2022-10-22T11:22:56;4.23;;;2.00;;
23258;SDS011;11798;51.528;7.240;2022-10-22T11:25:37;6.87;;;2.20;;
23258;SDS011;11798;51.528;7.240;2022-10-22T11:28:10;8.33;;;2.13;;
23258;SDS011;11798;51.528;7.240;2022-10-22T11:30:37;6.00;;;1.70;;
23258;SDS011;11798;51.528;7.240;2022-10-22T11:33:06;8.57;;;2.10;;
23258;SDS011;11798;51.528;7.240;2022-10-22T11:35:39;7.73;;;2.20;;
23258;SDS011;11798;51.528;7.240;2022-10-22T11:38:09;4.40;;;1.83;;
23258;SDS011;11798;51.528;7.240;2022-10-22T11:40:46;6.33;;;1.93;;
23258;SDS011;11798;51.528;7.240;2022-10-22T11:48:42;8.67;;;1.90;;
23258;SDS011;11798;51.528;7.240;2022-10-22T11:54:00;7.13;;;1.93;;
23258;SDS011;11798;51.528;7.240;2022-10-22T11:56:46;7.87;;;2.30;;
23258;SDS011;11798;51.528;7.240;2022-10-22T12:02:21;5.83;;;1.67;;
23258;SDS011;11798;51.528;7.240;2022-10-22T12:04:48;5.40;;;1.60;;
23258;SDS011;11798;51.528;7.240;2022-10-22T12:10:16;5.70;;;1.60;;
23258;SDS011;11798;51.528;7.240;2022-10-22T12:12:45;5.70;;;1.50;;
23258;SDS011;11798;51.528;7.240;2022-10-22T12:15:27;7.27;;;1.60;;
23258;SDS011;11798;51.528;7.240;2022-10-22T12:18:00;4.80;;;1.53;;
23258;SDS011;11798;51.528;7.240;2022-10-22T12:20:29;4.80;;;1.43;;
23258;SDS011;11798;51.528;7.240;2022-10-22T12:22:56;4.57;;;1.87;;
23258;SDS011;11798;51.528;7.240;2022-10-22T12:25:28;6.40;;;1.60;;
23258;SDS011;11798;51.528;7.240;2022-10-22T12:27:56;8.83;;;1.57;;
23258;SDS011;11798;51.528;7.240;2022-10-22T12:30:25;3.30;;;1.33;;
23258;SDS011;11798;51.528;7.240;2022-10-22T12:32:54;3.47;;;1.20;;
23258;SDS011;11798;51.528;7.240;2022-10-22T12:35:25;4.57;;;1.33;;
23258;SDS011;11798;51.528;7.240;2022-10-22T12:38:35;5.77;;;1.40;;
23258;SDS011;11798;51.528;7.240;2022-10-22T12:40:46;3.67;;;1.40;;
23258;SDS011;11798;51.528;7.240;2022-10-22T12:43:18;3.67;;;1.70;;
23258;SDS011;11798;51.528;7.240;2022-10-22T12:45:48;4.33;;;1.50;;
23258;SDS011;11798;51.528;7.240;2022-10-22T12:48:22;3.00;;;1.17;;
23258;SDS011;11798;51.528;7.240;2022-10-22T12:50:58;4.57;;;1.40;;
23258;SDS011;11798;51.528;7.240;2022-10-22T12:53:27;3.87;;;1.30;;
23258;SDS011;11798;51.528;7.240;2022-10-22T12:56:00;6.30;;;1.47;;
23258;SDS011;11798;51.528;7.240;2022-10-22T12:58:32;4.20;;;1.50;;
23258;SDS011;11798;51.528;7.240;2022-10-22T13:01:02;6.10;;;1.70;;
23258;SDS011;11798;51.528;7.240;2022-10-22T13:03:29;6.77;;;1.33;;
23258;SDS011;11798;51.528;7.240;2022-10-22T13:06:19;4.00;;;1.50;;
23258;SDS011;11798;51.528;7.240;2022-10-22T13:11:32;4.07;;;1.33;;
23258;SDS011;11798;51.528;7.240;2022-10-22T13:14:05;5.60;;;1.70;;
23258;SDS011;11798;51.528;7.240;2022-10-22T13:19:45;5.10;;;1.67;;
23258;SDS011;11798;51.528;7.240;2022-10-22T13:25:26;6.43;;;1.70;;
23258;SDS011;11798;51.528;7.240;2022-10-22T13:27:58;7.80;;;1.60;;
23258;SDS011;11798;51.528;7.240;2022-10-22T13:30:33;3.60;;;1.93;;
23258;SDS011;11798;51.528;7.240;2022-10-22T13:33:04;9.27;;;1.63;;
23258;SDS011;11798;51.528;7.240;2022-10-22T13:35:41;8.13;;;1.63;;
23258;SDS011;11798;51.528;7.240;2022-10-22T13:38:11;7.57;;;1.90;;
23258;SDS011;11798;51.528;7.240;2022-10-22T13:40:42;4.77;;;1.77;;
23258;SDS011;11798;51.528;7.240;2022-10-22T13:43:07;4.87;;;1.50;;
23258;SDS011;11798;51.528;7.240;2022-10-22T13:45:33;5.97;;;1.57;;
23258;SDS011;11798;51.528;7.240;2022-10-22T13:47:59;4.70;;;1.47;;
23258;SDS011;11798;51.528;7.240;2022-10-22T13:50:24;6.83;;;2.00;;
23258;SDS011;11798;51.528;7.240;2022-10-22T13:52:53;8.93;;;1.80;;
23258;SDS011;11798;51.528;7.240;2022-10-22T13:55:22;4.87;;;1.63;;
23258;SDS011;11798;51.528;7.240;2022-10-22T13:57:57;5.37;;;1.70;;
23258;SDS011;11798;51.528;7.240;2022-10-22T14:00:34;4.73;;;1.70;;
23258;SDS011;11798;51.528;7.240;2022-10-22T14:03:02;4.40;;;1.50;;
23258;SDS011;11798;51.528;7.240;2022-10-22T14:05:29;5.30;;;1.50;;
23258;SDS011;11798;51.528;7.240;2022-10-22T14:07:59;5.63;;;1.50;;
23258;SDS011;11798;51.528;7.240;2022-10-22T14:10:25;6.17;;;1.83;;
23258;SDS011;11798;51.528;7.240;2022-10-22T14:12:51;3.70;;;1.73;;
23258;SDS011;11798;51.528;7.240;2022-10-22T14:15:18;6.10;;;2.00;;
23258;SDS011;11798;51.528;7.240;2022-10-22T14:17:46;5.33;;;1.70;;
23258;SDS011;11798;51.528;7.240;2022-10-22T14:20:24;5.23;;;1.73;;
23258;SDS011;11798;51.528;7.240;2022-10-22T14:22:55;6.13;;;1.90;;
23258;SDS011;11798;51.528;7.240;2022-10-22T14:25:24;8.00;;;2.00;;
23258;SDS011;11798;51.528;7.240;2022-10-22T14:27:51;5.87;;;1.53;;
23258;SDS011;11798;51.528;7.240;2022-10-22T14:30:20;3.93;;;1.43;;
23258;SDS011;11798;51.528;7.240;2022-10-22T14:32:48;3.90;;;1.50;;
23258;SDS011;11798;51.528;7.240;2022-10-22T14:35:15;5.87;;;1.50;;
23258;SDS011;11798;51.528;7.240;2022-10-22T14:37:43;8.93;;;1.53;;
23258;SDS011;11798;51.528;7.240;2022-10-22T14:40:11;4.10;;;1.30;;
23258;SDS011;11798;51.528;7.240;2022-10-22T14:42:39;4.07;;;1.60;;
23258;SDS011;11798;51.528;7.240;2022-10-22T14:45:16;3.90;;;1.37;;
23258;SDS011;11798;51.528;7.240;2022-10-22T14:47:44;8.30;;;3.20;;
23258;SDS011;11798;51.528;7.240;2022-10-22T14:50:10;3.27;;;1.43;;
23258;SDS011;11798;51.528;7.240;2022-10-22T14:52:36;7.43;;;1.57;;
23258;SDS011;11798;51.528;7.240;2022-10-22T14:55:02;6.37;;;1.40;;
23258;SDS011;11798;51.528;7.240;2022-10-22T14:57:27;6.37;;;2.00;;
23258;SDS011;11798;51.528;7.240;2022-10-22T14:59:53;3.40;;;1.23;;
23258;SDS011;11798;51.528;7.240;2022-10-22T15:02:19;3.43;;;1.50;;
23258;SDS011;11798;51.528;7.240;2022-10-22T15:04:46;6.33;;;1.37;;
23258;SDS011;11798;51.528;7.240;2022-10-22T15:07:12;5.70;;;1.40;;
23258;SDS011;11798;51.528;7.240;2022-10-22T15:09:38;5.20;;;1.40;;
23258;SDS011;11798;51.528;7.240;2022-10-22T15:12:03;7.13;;;1.53;;
23258;SDS011;11798;51.528;7.240;2022-10-22T15:14:29;5.07;;;1.40;;
23258;SDS011;11798;51.528;7.240;2022-10-22T15:16:55;4.70;;;1.60;;
23258;SDS011;11798;51.528;7.240;2022-10-22T15:19:21;4.50;;;1.47;;
23258;SDS011;11798;51.528;7.240;2022-10-22T15:21:46;5.80;;;1.50;;
23258;SDS011;11798;51.528;7.240;2022-10-22T15:24:12;4.87;;;2.10;;
23258;SDS011;11798;51.528;7.240;2022-10-22T15:26:37;4.60;;;1.70;;
23258;SDS011;11798;51.528;7.240;2022-10-22T15:29:03;7.77;;;2.53;;
23258;SDS011;11798;51.528;7.240;2022-10-22T15:34:21;4.40;;;1.77;;
23258;SDS011;11798;51.528;7.240;2022-10-22T15:36:58;7.03;;;1.80;;
23258;SDS011;11798;51.528;7.240;2022-10-22T15:39:25;4.87;;;1.40;;
23258;SDS011;11798;51.528;7.240;2022-10-22T15:41:52;6.93;;;1.93;;
23258;SDS011;11798;51.528;7.240;2022-10-22T15:44:22;3.97;;;1.50;;
23258;SDS011;11798;51.528;7.240;2022-10-22T15:46:49;6.20;;;1.73;;
23258;SDS011;11798;51.528;7.240;2022-10-22T15:49:15;4.63;;;1.70;;
23258;SDS011;11798;51.528;7.240;2022-10-22T15:51:41;4.87;;;1.60;;
23258;SDS011;11798;51.528;7.240;2022-10-22T15:54:09;3.47;;;1.53;;
23258;SDS011;11798;51.528;7.240;2022-10-22T15:56:38;5.77;;;1.40;;
23258;SDS011;11798;51.528;7.240;2022-10-22T15:59:04;5.67;;;1.57;;
23258;SDS011;11798;51.528;7.240;2022-10-22T16:01:30;3.83;;;1.43;;
23258;SDS011;11798;51.528;7.240;2022-10-22T16:03:57;7.80;;;2.20;;
23258;SDS011;11798;51.528;7.240;2022-10-22T16:06:27;5.60;;;1.80;;
23258;SDS011;11798;51.528;7.240;2022-10-22T16:08:55;5.67;;;1.93;;
23258;SDS011;11798;51.528;7.240;2022-10-22T16:11:22;6.73;;;1.90;;
23258;SDS011;11798;51.528;7.240;2022-10-22T16:13:51;6.40;;;1.97;;
23258;SDS011;11798;51.528;7.240;2022-10-22T16:16:21;6.37;;;2.03;;
23258;SDS011;11798;51.528;7.240;2022-10-22T16:18:51;3.37;;;1.50;;
23258;SDS011;11798;51.528;7.240;2022-10-22T16:21:18;5.67;;;2.23;;
23258;SDS011;11798;51.528;7.240;2022-10-22T16:23:45;9.27;;;2.20;;
23258;SDS011;11798;51.528;7.240;2022-10-22T16:26:11;5.10;;;2.00;;
23258;SDS011;11798;51.528;7.240;2022-10-22T16:28:38;5.67;;;2.40;;
23258;SDS011;11798;51.528;7.240;2022-10-22T16:31:05;12.67;;;2.80;;
23258;SDS011;11798;51.528;7.240;2022-10-22T16:33:33;11.63;;;3.20;;
23258;SDS011;11798;51.528;7.240;2022-10-22T16:36:00;8.50;;;3.20;;
23258;SDS011;11798;51.528;7.240;2022-10-22T16:38:26;7.33;;;3.23;;
23258;SDS011;11798;51.528;7.240;2022-10-22T16:40:52;7.47;;;3.87;;
23258;SDS011;11798;51.528;7.240;2022-10-22T16:43:18;9.03;;;4.67;;
23258;SDS011;11798;51.528;7.240;2022-10-22T16:45:50;7.80;;;4.63;;